Time;durP1;ratioP1;P1;durP2;ratioP2;P2;SDS_P1;SDS_P2;PMS_P1;PMS_P2;Temp;Humidity;BMP_temperature;BMP_pressure;BME280_temperature;BME280_humidity;BME280_pressure;Samples;Min_cycle;Max_cycle;Signal;HPM_P1;HPM_P2
2022/01/17 00:01:14;;;;;;;8.38;4.82;;;;;;;-3.26;73.38;91238.50;5112591;28;20024;-65
2022/01/17 00:03:41;;;;;;;13.30;6.45;;;;;;;-3.34;73.93;91236.97;5112325;28;20055;-65
2022/01/17 00:06:07;;;;;;;10.13;5.00;;;;;;;-3.34;75.37;91237.78;5112164;28;20118;-64
2022/01/17 00:08:33;;;;;;;8.85;5.30;;;;;;;-3.35;75.76;91233.59;5112253;28;20102;-63
2022/01/17 00:11:00;;;;;;;11.07;5.75;;;;;;;-3.30;75.52;91237.38;5112211;28;20042;-64
2022/01/17 00:13:28;;;;;;;15.80;8.07;;;;;;;-3.32;75.99;91235.75;5112179;28;20059;-63
2022/01/17 00:16:05;;;;;;;19.40;7.63;;;;;;;-3.24;75.47;91245.09;5112008;28;20106;-63
2022/01/17 00:21:06;;;;;;;19.02;9.02;;;;;;;-3.58;74.76;91240.47;5112232;28;20038;-63
2022/01/17 00:23:32;;;;;;;22.65;9.85;;;;;;;-3.70;75.16;91238.56;5111952;28;20470;-64
2022/01/17 00:25:58;;;;;;;15.70;8.38;;;;;;;-3.82;75.64;91239.50;5112226;28;20035;-65
2022/01/17 00:28:24;;;;;;;20.30;8.82;;;;;;;-3.87;76.27;91239.34;5111948;28;20386;-62
2022/01/17 00:30:49;;;;;;;15.25;8.27;;;;;;;-3.99;76.66;91249.66;5111922;28;20389;-64
2022/01/17 00:33:15;;;;;;;16.98;8.32;;;;;;;-4.09;78.68;91234.56;5111796;28;20127;-64
2022/01/17 00:35:40;;;;;;;23.13;9.43;;;;;;;-4.24;79.11;91239.28;5111874;28;20047;-64
2022/01/17 00:38:07;;;;;;;19.25;8.82;;;;;;;-4.32;79.56;91229.16;5111848;28;20058;-64
2022/01/17 00:40:33;;;;;;;19.02;9.55;;;;;;;-4.30;80.09;91230.53;5111775;28;21316;-64
2022/01/17 00:42:59;;;;;;;17.90;8.05;;;;;;;-4.24;79.11;91228.91;5111942;28;20103;-64
2022/01/17 00:45:27;;;;;;;20.33;9.90;;;;;;;-4.23;81.03;91230.50;5111779;28;20031;-64
2022/01/17 00:47:57;;;;;;;23.15;11.35;;;;;;;-4.21;80.61;91225.88;5111994;28;20408;-63
2022/01/17 00:50:25;;;;;;;19.85;10.20;;;;;;;-4.31;80.96;91223.75;5111680;28;20031;-63
2022/01/17 00:52:51;;;;;;;20.77;8.32;;;;;;;-4.18;80.76;91229.84;5111602;28;20023;-64
2022/01/17 00:55:16;;;;;;;15.45;7.93;;;;;;;-4.02;78.81;91224.09;5111612;28;20447;-64
2022/01/17 00:57:42;;;;;;;24.52;10.00;;;;;;;-3.83;77.38;91217.13;5111636;28;20028;-64
2022/01/17 01:00:09;;;;;;;14.95;6.88;;;;;;;-3.94;76.83;91190.84;5111503;28;20058;-63
2022/01/17 01:02:36;;;;;;;18.05;7.72;;;;;;;-3.89;75.57;91187.59;5111474;28;20051;-64
2022/01/17 01:05:03;;;;;;;6.35;3.60;;;;;;;-3.84;74.27;91205.13;5111309;28;20051;-64
2022/01/17 01:07:29;;;;;;;6.88;2.83;;;;;;;-3.94;73.36;91200.44;5111431;28;20495;-64
2022/01/17 01:10:10;;;;;;;6.32;3.03;;;;;;;-4.07;73.33;91198.78;5111459;28;20098;-64
2022/01/17 01:12:38;;;;;;;7.88;3.35;;;;;;;-4.25;74.19;91203.94;5111356;28;20024;-64
2022/01/17 01:15:11;;;;;;;6.97;3.58;;;;;;;-4.34;74.77;91200.81;5111433;28;20036;-63
2022/01/17 01:17:48;;;;;;;6.38;3.00;;;;;;;-4.40;74.57;91191.28;5111464;28;20116;-63
2022/01/17 01:20:28;;;;;;;6.20;3.30;;;;;;;-4.38;74.63;91206.66;5110192;28;20030;-63
2022/01/17 01:28:21;;;;;;;11.32;4.15;;;;;;;-3.67;70.84;91185.34;5115504;28;20101;-63
2022/01/17 01:30:50;;;;;;;8.25;3.97;;;;;;;-3.36;69.26;91187.78;5115412;27;20476;-63
2022/01/17 01:33:23;;;;;;;5.72;3.38;;;;;;;-3.12;67.80;91193.09;5115186;28;20023;-63
2022/01/17 01:35:56;;;;;;;6.63;3.15;;;;;;;-3.02;66.90;91182.94;5115236;28;20023;-64
2022/01/17 01:38:22;;;;;;;10.77;3.13;;;;;;;-2.82;65.54;91180.09;5115128;28;20536;-63
2022/01/17 01:40:47;;;;;;;6.95;3.00;;;;;;;-2.72;64.48;91162.91;5115040;28;20106;-64
2022/01/17 01:43:13;;;;;;;7.50;3.65;;;;;;;-2.68;64.33;91172.84;5114968;28;20024;-64
2022/01/17 01:45:39;;;;;;;5.68;3.33;;;;;;;-2.78;64.33;91166.41;5115057;28;20049;-64
2022/01/17 01:48:05;;;;;;;6.47;3.17;;;;;;;-2.84;64.46;91164.69;5115020;28;20035;-64
2022/01/17 01:50:31;;;;;;;5.65;3.60;;;;;;;-2.66;63.11;91170.84;5114863;28;20080;-64
2022/01/17 01:52:57;;;;;;;6.82;3.20;;;;;;;-2.42;61.64;91177.66;5114845;28;20039;-64
2022/01/17 01:55:22;;;;;;;5.93;3.05;;;;;;;-2.27;60.99;91175.41;5115112;28;20104;-64
2022/01/17 01:57:48;;;;;;;6.93;3.22;;;;;;;-2.18;60.96;91176.69;5114808;28;20036;-64
2022/01/17 02:00:15;;;;;;;7.47;3.60;;;;;;;-2.00;60.36;91159.34;5114644;28;20015;-64
2022/01/17 02:02:41;;;;;;;4.18;2.92;;;;;;;-1.85;59.38;91157.88;5114510;28;20096;-64
2022/01/17 02:05:07;;;;;;;3.70;2.75;;;;;;;-1.84;59.28;91163.88;5114604;28;20039;-64
2022/01/17 02:07:33;;;;;;;5.15;3.03;;;;;;;-1.86;59.09;91155.50;5114557;28;20063;-64
2022/01/17 02:09:59;;;;;;;4.10;2.80;;;;;;;-1.90;59.86;91164.75;5114591;28;20545;-64
2022/01/17 02:12:28;;;;;;;6.72;3.50;;;;;;;-1.87;59.93;91154.69;5114665;28;20024;-64
2022/01/17 02:14:54;;;;;;;4.65;2.70;;;;;;;-1.70;58.63;91154.00;5114505;28;20111;-64
2022/01/17 02:17:23;;;;;;;6.72;3.40;;;;;;;-1.67;59.20;91149.09;5114778;28;20032;-64
2022/01/17 02:20:06;;;;;;;6.00;2.83;;;;;;;-1.62;58.89;91161.44;5114340;28;20572;-64
2022/01/17 02:22:32;;;;;;;3.97;2.50;;;;;;;-1.63;58.98;91163.25;5114264;28;20495;-64
2022/01/17 02:24:58;;;;;;;3.60;2.58;;;;;;;-1.60;58.60;91154.19;5114308;28;20080;-64
2022/01/17 02:27:24;;;;;;;7.45;3.40;;;;;;;-1.54;58.37;91167.13;5114263;28;20102;-64
2022/01/17 02:29:49;;;;;;;5.40;3.10;;;;;;;-1.56;58.67;91170.97;5114176;28;20860;-64
2022/01/17 02:32:15;;;;;;;3.80;3.05;;;;;;;-1.66;59.23;91178.59;5113981;28;20024;-64
2022/01/17 02:34:42;;;;;;;5.47;3.25;;;;;;;-1.51;58.48;91173.69;5114033;28;20038;-64
2022/01/17 02:37:09;;;;;;;4.10;2.97;;;;;;;-1.37;57.26;91177.63;5114011;28;20035;-64
2022/01/17 02:39:35;;;;;;;7.03;3.35;;;;;;;-1.41;57.44;91175.72;5112689;28;20148;-64
2022/01/17 02:42:02;;;;;;;9.20;3.92;;;;;;;-1.53;58.30;91184.34;5113884;28;20161;-64
2022/01/17 02:44:27;;;;;;;5.25;3.60;;;;;;;-1.67;58.95;91183.00;5113963;28;20106;-64
2022/01/17 02:46:53;;;;;;;7.45;3.75;;;;;;;-1.60;58.38;91180.28;5113871;28;20515;-64
2022/01/17 02:49:18;;;;;;;6.07;3.40;;;;;;;-1.57;58.17;91188.44;5113772;28;20032;-64
2022/01/17 02:51:48;;;;;;;5.88;3.70;;;;;;;-1.58;58.22;91178.22;5113778;28;20030;-64
2022/01/17 02:54:14;;;;;;;5.75;3.30;;;;;;;-1.55;58.07;91177.78;5113532;28;20032;-64
2022/01/17 02:56:39;;;;;;;4.15;2.75;;;;;;;-1.32;56.80;91182.16;5113585;28;20031;-64
2022/01/17 02:59:05;;;;;;;5.13;2.85;;;;;;;-1.49;56.81;91155.19;5113620;28;20413;-64
2022/01/17 03:01:31;;;;;;;4.32;3.05;;;;;;;-1.31;56.35;91166.25;5113524;28;20024;-64
2022/01/17 03:06:23;;;;;;;3.80;2.72;;;;;;;-1.24;56.23;91168.75;5220211;22;20520;-66
2022/01/17 03:08:50;;;;;;;10.90;4.90;;;;;;;-1.11;55.82;91163.22;5073120;28;20031;-64
2022/01/17 03:11:22;;;;;;;6.63;3.30;;;;;;;-1.05;55.74;91164.94;5072765;28;20078;-64
2022/01/17 03:13:50;;;;;;;5.90;3.67;;;;;;;-1.10;57.08;91169.28;5072765;28;20032;-64
2022/01/17 03:16:18;;;;;;;5.10;2.58;;;;;;;-1.15;57.25;91162.13;5072625;28;20615;-64
2022/01/17 03:18:51;;;;;;;8.05;3.58;;;;;;;-1.14;57.09;91162.91;5072630;28;20024;-65
2022/01/17 03:21:18;;;;;;;5.53;3.55;;;;;;;-1.19;56.74;91145.34;5072582;28;20059;-65
2022/01/17 03:23:46;;;;;;;7.13;3.88;;;;;;;-1.25;57.10;91147.06;5072591;28;20064;-65
2022/01/17 03:26:12;;;;;;;8.10;3.80;;;;;;;-1.32;57.09;91154.22;5072409;28;20021;-65
2022/01/17 03:28:38;;;;;;;9.98;5.13;;;;;;;-1.48;58.92;91157.56;5072545;28;20062;-65
2022/01/17 03:31:05;;;;;;;7.63;4.45;;;;;;;-1.70;59.79;91149.56;5072464;28;20027;-65
2022/01/17 03:33:31;;;;;;;11.30;6.00;;;;;;;-1.87;59.99;91153.91;5072149;28;20123;-65
2022/01/17 03:35:57;;;;;;;12.30;5.88;;;;;;;-1.94;62.40;91168.84;5072240;28;20036;-65
2022/01/17 03:38:26;;;;;;;14.07;7.15;;;;;;;-1.90;59.74;91156.94;5072267;28;20464;-65
2022/01/17 03:40:52;;;;;;;11.23;5.28;;;;;;;-1.83;59.66;91165.47;5072145;28;20028;-65
2022/01/17 03:43:20;;;;;;;9.10;4.50;;;;;;;-1.74;58.61;91158.84;5072204;28;20102;-65
2022/01/17 03:45:46;;;;;;;8.48;4.47;;;;;;;-1.71;59.15;91155.81;5072073;28;20030;-65
2022/01/17 03:48:12;;;;;;;6.93;3.40;;;;;;;-1.72;58.66;91153.44;5072116;28;20036;-65
2022/01/17 03:50:38;;;;;;;6.25;3.80;;;;;;;-1.76;58.59;91165.31;5071696;28;20040;-65
2022/01/17 03:53:04;;;;;;;7.88;4.57;;;;;;;-1.64;57.17;91172.13;5072034;28;20090;-65
2022/01/17 03:55:32;;;;;;;7.82;4.32;;;;;;;-1.64;57.06;91169.50;5071859;28;20033;-65
2022/01/17 03:57:58;;;;;;;9.23;5.32;;;;;;;-1.64;57.69;91169.50;5071938;28;20024;-65
2022/01/17 04:00:30;;;;;;;12.90;6.32;;;;;;;-1.69;57.88;91156.38;5072000;28;20032;-65
2022/01/17 04:02:55;;;;;;;8.63;4.82;;;;;;;-1.61;57.35;91163.03;5071890;28;20035;-65
2022/01/17 04:05:21;;;;;;;8.30;4.97;;;;;;;-1.62;58.05;91169.28;5071515;28;20044;-66
2022/01/17 04:07:47;;;;;;;13.15;6.10;;;;;;;-1.67;59.27;91169.19;5071747;28;20090;-65
2022/01/17 04:10:14;;;;;;;11.10;5.07;;;;;;;-1.77;59.87;91159.31;5071671;28;20058;-65
2022/01/17 04:12:41;;;;;;;14.32;8.15;;;;;;;-1.78;59.66;91162.94;5071614;28;20112;-65
2022/01/17 04:15:07;;;;;;;15.48;8.13;;;;;;;-1.75;59.76;91154.66;5071566;28;20020;-65
2022/01/17 04:17:33;;;;;;;68.22;25.23;;;;;;;-1.68;59.58;91165.78;5071618;28;20032;-65
2022/01/17 04:20:05;;;;;;;55.88;20.45;;;;;;;-1.68;59.19;91168.38;5071501;28;20013;-65
2022/01/17 04:22:35;;;;;;;45.10;17.27;;;;;;;-1.82;58.81;91167.03;5071515;28;20127;-65
2022/01/17 04:25:02;;;;;;;23.90;11.18;;;;;;;-1.85;58.42;91167.50;5071455;28;20024;-65
2022/01/17 04:27:28;;;;;;;27.00;12.00;;;;;;;-1.81;58.08;91166.81;5071445;28;20029;-65
2022/01/17 04:29:53;;;;;;;32.28;19.38;;;;;;;-1.78;57.35;91172.59;5071406;28;20024;-65
2022/01/17 04:32:19;;;;;;;22.02;11.18;;;;;;;-1.80;57.15;91175.41;5071376;28;20716;-65
2022/01/17 04:34:45;;;;;;;9.13;5.10;;;;;;;-1.77;57.12;91174.97;5071243;28;20059;-65
2022/01/17 04:37:10;;;;;;;21.90;8.00;;;;;;;-1.83;57.90;91170.66;5071332;28;20039;-65
2022/01/17 04:39:36;;;;;;;13.80;6.85;;;;;;;-1.84;57.82;91174.31;5071223;28;20029;-65
2022/01/17 04:42:10;;;;;;;20.25;6.82;;;;;;;-1.91;58.12;91165.78;5071180;28;20028;-64
2022/01/17 04:47:19;;;;;;;23.67;9.60;;;;;;;-2.01;58.87;91155.16;5071234;28;20055;-64
2022/01/17 04:49:45;;;;;;;13.85;6.38;;;;;;;-2.09;59.29;91165.91;5071137;28;20485;-65
2022/01/17 04:52:13;;;;;;;24.33;12.05;;;;;;;-2.17;59.63;91165.25;5071121;28;20158;-65
2022/01/17 04:54:44;;;;;;;16.08;7.63;;;;;;;-2.24;60.15;91174.97;5071290;28;20032;-65
2022/01/17 04:57:12;;;;;;;16.17;8.85;;;;;;;-2.43;60.56;91166.47;5060403;28;20028;-65
2022/01/17 04:59:41;;;;;;;13.88;7.57;;;;;;;-2.37;60.83;91180.38;5070762;28;20565;-65
2022/01/17 05:02:07;;;;;;;11.70;5.60;;;;;;;-2.44;61.32;91174.50;5072692;28;20055;-64
2022/01/17 05:04:33;;;;;;;14.65;7.45;;;;;;;-2.49;61.67;91179.59;5074787;28;20493;-64
2022/01/17 05:06:58;;;;;;;13.10;7.47;;;;;;;-2.60;62.10;91186.38;5074877;28;20031;-63
2022/01/17 05:09:24;;;;;;;24.05;12.10;;;;;;;-2.66;62.61;91183.88;5074904;28;20040;-63
2022/01/17 05:11:50;;;;;;;26.85;11.70;;;;;;;-2.69;62.80;91182.47;5074394;28;20541;-64
2022/01/17 05:14:16;;;;;;;10.82;5.82;;;;;;;-2.76;63.20;91194.81;5074706;28;20062;-64
2022/01/17 05:16:48;;;;;;;7.88;5.35;;;;;;;-2.79;63.57;91192.66;5074853;28;20056;-63
2022/01/17 05:21:57;;;;;;;5.95;4.15;;;;;;;-2.85;63.61;91181.31;5074682;28;20066;-63
2022/01/17 05:24:23;;;;;;;201.45;74.88;;;;;;;-2.70;62.91;91188.72;5074433;28;20033;-63
2022/01/17 05:26:49;;;;;;;227.68;80.93;;;;;;;-2.72;62.15;91160.28;5074056;28;20143;-64
2022/01/17 05:29:15;;;;;;;151.07;61.03;;;;;;;-2.43;61.34;91184.69;5071745;28;20033;-64
2022/01/17 05:31:40;;;;;;;17.10;9.52;;;;;;;-2.33;61.00;91178.16;5073800;28;20086;-64
2022/01/17 05:34:06;;;;;;;11.77;7.80;;;;;;;-2.28;61.43;91178.25;5073728;28;20024;-64
2022/01/17 05:36:31;;;;;;;36.15;19.15;;;;;;;-2.37;61.50;91156.94;5073892;28;20028;-64
2022/01/17 05:38:57;;;;;;;21.65;11.93;;;;;;;-2.23;61.40;91165.34;5056198;28;20025;-63
2022/01/17 05:41:23;;;;;;;41.08;21.50;;;;;;;-2.32;62.69;91162.28;5073443;28;20020;-61
2022/01/17 05:43:48;;;;;;;17.35;8.73;;;;;;;-2.39;62.15;91148.56;5074048;28;20473;-63
2022/01/17 05:46:14;;;;;;;18.27;10.18;;;;;;;-2.37;63.01;91154.34;5073727;28;20051;-62
2022/01/17 05:48:39;;;;;;;17.70;9.68;;;;;;;-2.38;62.97;91152.75;5073981;28;20417;-63
2022/01/17 05:51:05;;;;;;;12.77;6.28;;;;;;;-2.47;63.65;91160.13;5073762;28;20021;-63
2022/01/17 05:53:31;;;;;;;11.35;6.38;;;;;;;-2.49;64.14;91150.94;5073650;28;20115;-63
2022/01/17 05:55:57;;;;;;;11.85;6.63;;;;;;;-2.41;64.34;91154.00;5073392;28;20028;-63
2022/01/17 05:58:22;;;;;;;10.35;6.20;;;;;;;-2.45;64.95;91147.66;5073793;28;20039;-62
2022/01/17 06:00:48;;;;;;;8.90;5.85;;;;;;;-2.55;64.68;91123.19;5073572;28;20409;-63
2022/01/17 06:03:14;;;;;;;14.23;7.25;;;;;;;-2.44;64.90;91143.25;5073483;28;20024;-63
2022/01/17 06:05:39;;;;;;;13.80;6.35;;;;;;;-2.37;64.84;91145.72;5073223;28;20131;-62
2022/01/17 06:08:05;;;;;;;12.15;6.22;;;;;;;-2.31;64.71;91143.03;5073520;28;20063;-62
2022/01/17 06:10:30;;;;;;;11.13;6.18;;;;;;;-2.29;64.88;91141.00;5072989;28;20090;-63
2022/01/17 06:12:56;;;;;;;5.85;4.43;;;;;;;-2.25;64.74;91142.13;5072785;28;20024;-65
2022/01/17 06:15:22;;;;;;;9.40;5.13;;;;;;;-2.24;65.28;91148.13;5073172;28;20097;-62
2022/01/17 06:17:48;;;;;;;10.13;6.03;;;;;;;-2.26;65.20;91152.75;5073402;28;20028;-63
2022/01/17 06:20:14;;;;;;;20.45;10.05;;;;;;;-2.32;64.55;91144.06;5055302;28;20508;-64
2022/01/17 06:22:39;;;;;;;33.83;15.02;;;;;;;-2.20;65.42;91157.88;5073430;28;20034;-63
2022/01/17 06:25:06;;;;;;;22.25;9.20;;;;;;;-2.13;65.29;91155.16;5073063;28;20516;-64
2022/01/17 06:27:31;;;;;;;14.18;7.60;;;;;;;-1.95;64.89;91152.41;5072830;28;20025;-63
2022/01/17 06:29:57;;;;;;;13.98;6.60;;;;;;;-1.90;64.42;91149.13;5073318;28;20119;-63
2022/01/17 06:32:23;;;;;;;24.80;14.75;;;;;;;-1.81;64.60;91152.97;5073058;28;20497;-63
2022/01/17 06:34:49;;;;;;;70.85;37.15;;;;;;;-1.73;64.25;91160.47;5073076;28;20040;-63
2022/01/17 06:37:14;;;;;;;108.57;48.28;;;;;;;-1.58;63.69;91157.34;5073092;28;20029;-63
2022/01/17 06:39:40;;;;;;;106.90;58.38;;;;;;;-1.49;63.56;91152.59;5073026;28;20067;-63
2022/01/17 06:42:06;;;;;;;15.00;9.82;;;;;;;-1.39;64.03;91165.84;5072719;28;20497;-63
2022/01/17 06:44:32;;;;;;;25.65;14.93;;;;;;;-1.25;63.50;91161.94;5072991;28;20459;-63
2022/01/17 06:46:57;;;;;;;30.85;18.17;;;;;;;-1.22;63.67;91179.75;5073032;28;20028;-64
2022/01/17 06:49:23;;;;;;;30.75;17.15;;;;;;;-1.01;64.48;91186.94;5088561;28;20041;-64
2022/01/17 06:51:48;;;;;;;34.42;21.05;;;;;;;-0.75;64.07;91190.03;5072871;28;20048;-64
2022/01/17 06:54:14;;;;;;;17.63;13.65;;;;;;;-0.52;64.00;91187.28;5072599;28;20048;-64
2022/01/17 06:56:43;;;;;;;12.55;7.07;;;;;;;-0.09;62.83;91194.53;5072551;28;20028;-64
2022/01/17 06:59:13;;;;;;;6.78;5.03;;;;;;;0.04;62.57;91187.41;5072858;28;20051;-64
2022/01/17 07:01:39;;;;;;;7.18;4.60;;;;;;;0.11;62.73;91180.16;5088253;28;20111;-64
2022/01/17 07:04:06;;;;;;;7.72;4.10;;;;;;;0.31;61.99;91180.47;5072996;28;20111;-68
2022/01/17 07:06:32;;;;;;;8.48;5.90;;;;;;;0.51;62.34;91175.53;5072579;28;20047;-65
2022/01/17 07:08:58;;;;;;;18.10;8.65;;;;;;;0.72;61.06;91173.16;5072755;28;20029;-64
2022/01/17 07:11:23;;;;;;;22.30;9.90;;;;;;;1.03;59.90;91176.94;5072307;28;20115;-65
2022/01/17 07:13:49;;;;;;;9.65;5.45;;;;;;;1.78;58.91;91165.63;5072512;28;20020;-65
2022/01/17 07:16:14;;;;;;;14.85;7.25;;;;;;;3.58;55.10;91165.25;5072430;28;20033;-65
2022/01/17 07:18:40;;;;;;;21.45;9.82;;;;;;;5.83;49.81;91157.66;5072546;28;20025;-65
2022/01/17 07:21:06;;;;;;;19.77;9.02;;;;;;;8.08;45.49;91153.22;5072410;28;20028;-65
2022/01/17 07:23:33;;;;;;;14.00;7.63;;;;;;;9.18;42.54;91150.91;5072309;28;20051;-65
2022/01/17 07:25:58;;;;;;;38.47;17.38;;;;;;;8.54;42.94;91151.78;5071298;28;20108;-65
2022/01/17 07:28:24;;;;;;;33.70;14.50;;;;;;;8.62;42.79;91154.53;5072328;28;20025;-65
2022/01/17 07:30:49;;;;;;;17.35;9.43;;;;;;;10.98;39.04;91139.50;5072247;28;20428;-65
2022/01/17 07:33:16;;;;;;;9.15;6.22;;;;;;;11.08;37.73;91135.81;5054257;28;20028;-65
2022/01/17 07:35:44;;;;;;;9.05;6.75;;;;;;;12.55;36.40;91139.63;5072057;28;20033;-65
2022/01/17 07:38:10;;;;;;;11.07;5.57;;;;;;;12.71;34.20;91131.91;5071987;28;20530;-65
2022/01/17 07:40:35;;;;;;;6.88;4.93;;;;;;;12.32;35.55;91140.09;5071565;28;20107;-65
2022/01/17 07:43:01;;;;;;;8.00;4.40;;;;;;;12.83;35.05;91118.72;5071938;28;20071;-65
2022/01/17 07:45:29;;;;;;;7.63;4.70;;;;;;;12.74;34.66;91120.59;5071955;28;20032;-65
2022/01/17 07:50:23;;;;;;;99.65;40.55;;;;;;;9.99;38.16;91126.44;5071808;28;20028;-65
2022/01/17 07:52:50;;;;;;;17.25;8.68;;;;;;;9.07;40.45;91141.56;5071676;28;20025;-65
2022/01/17 07:55:17;;;;;;;5.55;3.22;;;;;;;6.49;44.40;91150.06;5069811;28;20489;-63
2022/01/17 07:57:43;;;;;;;9.80;6.43;;;;;;;6.27;46.59;91171.63;5071089;28;20029;-65
2022/01/17 08:00:12;;;;;;;17.17;7.35;;;;;;;8.91;42.25;91203.94;5071485;28;20032;-66
2022/01/17 08:02:38;;;;;;;19.33;10.73;;;;;;;10.94;39.53;91234.38;5071541;28;20451;-64
2022/01/17 08:05:04;;;;;;;49.33;24.33;;;;;;;11.10;38.07;91238.25;5071160;28;20045;-64
2022/01/17 08:07:30;;;;;;;43.60;21.00;;;;;;;11.83;38.14;91224.69;5071101;28;20082;-64
2022/01/17 08:09:56;;;;;;;10.77;7.72;;;;;;;12.37;37.60;91234.09;5071093;28;20029;-64
2022/01/17 08:12:21;;;;;;;7.88;5.35;;;;;;;11.62;37.28;91222.53;5071246;28;20490;-64
2022/01/17 08:14:47;;;;;;;9.48;6.10;;;;;;;12.54;36.90;91209.31;5070808;28;20036;-63
2022/01/17 08:17:12;;;;;;;7.35;4.93;;;;;;;12.97;34.42;91198.66;5070446;28;20112;-63
2022/01/17 08:19:38;;;;;;;7.82;4.60;;;;;;;12.22;35.01;91211.31;5071110;28;20067;-62
2022/01/17 08:22:05;;;;;;;14.93;9.95;;;;;;;12.16;35.33;91220.56;5071139;28;20029;-63
2022/01/17 08:24:33;;;;;;;8.75;5.47;;;;;;;11.48;35.98;91237.84;5070559;28;20050;-62
2022/01/17 08:26:59;;;;;;;11.10;5.03;;;;;;;10.82;35.76;91282.03;5071013;28;20052;-63
2022/01/17 08:29:28;;;;;;;5.03;3.67;;;;;;;10.78;35.61;91307.69;5067390;28;20497;-63
2022/01/17 08:31:59;;;;;;;9.18;4.05;;;;;;;11.59;35.43;91303.09;5070996;28;20031;-62
2022/01/17 08:34:25;;;;;;;5.18;3.60;;;;;;;11.84;34.37;91327.59;5070521;28;20485;-62
2022/01/17 08:36:50;;;;;;;6.45;4.85;;;;;;;11.73;34.54;91339.56;5070837;28;20048;-63
2022/01/17 08:39:16;;;;;;;9.18;5.18;;;;;;;11.53;31.04;91299.00;5070254;28;20028;-62
2022/01/17 08:41:42;;;;;;;7.53;5.03;;;;;;;10.79;31.63;91253.38;5070598;28;20128;-63
2022/01/17 08:44:12;;;;;;;5.82;4.35;;;;;;;8.13;34.63;91292.00;5070717;28;20024;-62
2022/01/17 08:46:38;;;;;;;14.30;6.25;;;;;;;8.65;35.57;91269.84;5065183;28;20091;-62
2022/01/17 08:49:05;;;;;;;7.10;3.53;;;;;;;8.94;35.95;91249.22;5069096;28;20097;-63
2022/01/17 08:51:31;;;;;;;5.95;4.38;;;;;;;9.48;36.24;91260.28;5070350;28;20070;-63
2022/01/17 08:53:56;;;;;;;5.90;4.45;;;;;;;9.76;35.77;91211.38;5069711;28;20062;-64
2022/01/17 08:56:22;;;;;;;8.30;4.25;;;;;;;10.08;35.21;91178.56;5070402;28;20528;-64
2022/01/17 08:58:47;;;;;;;7.10;3.88;;;;;;;9.61;35.44;91219.66;5070596;28;20032;-62
2022/01/17 09:01:13;;;;;;;14.13;8.10;;;;;;;10.97;35.30;91239.09;5069658;28;20062;-63
2022/01/17 09:03:40;;;;;;;12.52;8.98;;;;;;;9.73;35.70;91200.56;5070112;28;20439;-63
2022/01/17 09:06:06;;;;;;;14.70;6.88;;;;;;;6.35;41.52;91186.13;5069264;28;20493;-63
2022/01/17 09:08:32;;;;;;;7.55;5.30;;;;;;;4.81;42.38;91193.16;5069251;28;20067;-63
2022/01/17 09:10:58;;;;;;;9.18;5.25;;;;;;;8.54;38.28;91181.72;5070477;28;20027;-62
2022/01/17 09:13:24;;;;;;;12.07;5.53;;;;;;;10.26;35.44;91178.78;5069890;28;20041;-62
2022/01/17 09:15:50;;;;;;;17.05;6.45;;;;;;;9.79;37.08;91165.66;5069869;28;20048;-62
2022/01/17 09:18:17;;;;;;;9.50;5.85;;;;;;;9.56;35.79;91154.13;5070329;28;20497;-62
2022/01/17 09:20:43;;;;;;;17.95;9.15;;;;;;;9.78;32.61;91148.13;5070414;28;20082;-61
2022/01/17 09:23:08;;;;;;;6.85;4.20;;;;;;;9.68;34.09;91151.00;5069841;28;20036;-62
2022/01/17 09:25:34;;;;;;;11.00;5.93;;;;;;;7.40;36.94;91145.66;5069457;28;20040;-62
2022/01/17 09:28:00;;;;;;;6.13;3.65;;;;;;;8.09;36.61;91141.56;5070204;28;20102;-61
2022/01/17 09:30:25;;;;;;;5.00;3.63;;;;;;;9.29;33.73;91168.19;5069760;28;20505;-62
2022/01/17 09:32:51;;;;;;;8.90;3.80;;;;;;;9.95;33.49;91168.78;5067463;28;20496;-62
2022/01/17 09:35:17;;;;;;;7.60;4.00;;;;;;;10.00;33.24;91159.91;5068623;28;20035;-62
2022/01/17 09:37:43;;;;;;;8.30;3.92;;;;;;;12.37;27.72;91162.06;5070000;28;20030;-62
2022/01/17 09:40:10;;;;;;;5.32;2.75;;;;;;;12.57;26.23;91148.09;5069278;28;20021;-61
2022/01/17 09:42:37;;;;;;;4.93;3.70;;;;;;;12.76;26.97;91139.75;5070245;28;20111;-62
2022/01/17 09:45:12;;;;;;;7.63;4.15;;;;;;;13.17;25.83;91130.41;5069996;28;20104;-63
2022/01/17 09:47:39;;;;;;;8.52;4.53;;;;;;;13.70;25.80;91134.47;5070788;28;20036;-62
2022/01/17 09:50:09;;;;;;;53.17;28.13;;;;;;;14.98;25.02;91113.25;5074084;28;20028;-63
2022/01/17 09:52:39;;;;;;;11.93;7.07;;;;;;;15.00;25.61;91118.31;5073721;28;20043;-63
2022/01/17 09:55:04;;;;;;;6.55;4.47;;;;;;;15.53;25.18;91130.03;5073257;28;20398;-63
2022/01/17 09:57:31;;;;;;;12.13;4.95;;;;;;;15.81;24.73;91122.16;5073504;28;20090;-64
2022/01/17 09:59:57;;;;;;;5.40;3.28;;;;;;;15.44;24.58;91114.03;5073815;28;20017;-64
2022/01/17 10:02:23;;;;;;;6.40;4.45;;;;;;;14.91;24.88;91112.25;5073460;28;20029;-64
2022/01/17 10:04:48;;;;;;;5.15;2.90;;;;;;;15.06;24.68;91108.94;5073257;28;20102;-63
2022/01/17 10:07:14;;;;;;;5.95;3.88;;;;;;;15.16;25.02;91116.56;5073634;28;20520;-64
2022/01/17 10:09:43;;;;;;;7.80;3.97;;;;;;;15.09;26.35;91136.97;5073130;28;20039;-63
2022/01/17 10:12:14;;;;;;;5.75;3.35;;;;;;;12.52;29.37;91153.59;5073560;28;20398;-63
2022/01/17 10:14:59;;;;;;;8.88;3.88;;;;;;;12.82;28.76;91159.88;5073422;28;20083;-63
2022/01/17 10:17:42;;;;;;;7.15;4.50;;;;;;;12.87;29.46;91166.91;5072609;28;20417;-65
2022/01/17 10:20:10;;;;;;;7.82;4.00;;;;;;;12.35;30.39;91158.16;5073302;28;20512;-64
2022/01/17 10:22:46;;;;;;;5.25;3.47;;;;;;;11.07;32.09;91156.34;5073189;28;20401;-64
2022/01/17 10:25:27;;;;;;;7.28;4.07;;;;;;;11.80;33.44;91167.44;5072624;28;20036;-64
2022/01/17 10:34:52;;;;;;;6.75;3.83;;;;;;;11.88;33.47;91153.38;5073334;28;20062;-62
2022/01/17 10:36:49;;;;;;;9.43;5.00;;;;;;;11.30;34.74;91137.63;5056734;28;20440;-66
2022/01/17 10:39:15;;;;;;;6.35;4.57;;;;;;;10.04;35.42;91144.91;5072607;28;20098;-64
2022/01/17 10:41:41;;;;;;;5.75;4.63;;;;;;;7.85;39.07;91138.19;5072709;28;20032;-63
2022/01/17 10:44:07;;;;;;;8.38;5.40;;;;;;;7.94;40.19;91148.94;5072880;28;20024;-63
2022/01/17 10:46:33;;;;;;;5.22;3.50;;;;;;;7.27;41.61;91140.28;5072889;28;20564;-62
2022/01/17 10:49:00;;;;;;;6.10;3.75;;;;;;;6.21;43.83;91146.31;5073029;28;20424;-63
2022/01/17 10:51:32;;;;;;;7.55;4.40;;;;;;;5.98;44.81;91142.53;5072579;28;20025;-63
2022/01/17 10:54:09;;;;;;;9.48;5.25;;;;;;;6.28;44.97;91130.94;5072340;28;20493;-63
2022/01/17 10:56:47;;;;;;;6.38;4.72;;;;;;;6.75;43.53;91144.53;5072603;28;20063;-64
2022/01/17 10:59:25;;;;;;;7.43;5.25;;;;;;;7.30;42.08;91143.16;5071451;28;20041;-63
2022/01/17 11:01:53;;;;;;;6.50;4.45;;;;;;;7.33;42.07;91139.13;5072016;28;20116;-64
2022/01/17 11:04:36;;;;;;;9.68;4.97;;;;;;;7.06;41.93;91129.91;5072436;28;20387;-65
2022/01/17 11:07:07;;;;;;;13.77;7.88;;;;;;;7.19;42.12;91128.44;5032661;28;20029;-63
2022/01/17 11:09:41;;;;;;;5.93;3.92;;;;;;;7.46;41.56;91128.66;5032083;28;20104;-63
2022/01/17 11:12:15;;;;;;;6.88;4.97;;;;;;;8.75;40.50;91109.78;5032703;28;20394;-64
2022/01/17 11:14:42;;;;;;;10.50;5.38;;;;;;;10.75;37.60;91111.38;5032046;28;20487;-65
2022/01/17 11:17:37;;;;;;;14.63;7.10;;;;;;;12.67;34.66;91120.31;5032271;28;20458;-65
2022/01/17 11:20:07;;;;;;;16.52;9.68;;;;;;;11.06;36.67;91104.19;5032368;28;20040;-65
2022/01/17 11:22:41;;;;;;;8.50;5.43;;;;;;;10.18;37.11;91103.91;5031337;28;20461;-64
2022/01/17 11:25:11;;;;;;;13.52;8.82;;;;;;;7.77;41.95;91102.56;5029215;28;20033;-64
2022/01/17 11:27:38;;;;;;;8.05;5.47;;;;;;;7.49;43.16;91096.31;5031253;28;20022;-64
2022/01/17 11:30:04;;;;;;;7.88;4.43;;;;;;;7.47;43.44;91117.00;5032122;28;20033;-64
2022/01/17 11:32:30;;;;;;;8.73;4.50;;;;;;;6.85;44.48;91120.63;5032084;28;20029;-63
2022/01/17 11:34:58;;;;;;;13.00;6.93;;;;;;;6.03;46.32;91117.16;5032052;28;20043;-63
2022/01/17 11:37:25;;;;;;;5.03;3.80;;;;;;;5.61;47.10;91106.06;5031751;28;20022;-64
2022/01/17 11:39:55;;;;;;;5.20;4.07;;;;;;;5.30;49.16;91109.94;5031057;28;20053;-64
2022/01/17 11:42:42;;;;;;;7.30;4.78;;;;;;;6.09;49.17;91105.50;5032063;28;20041;-64
2022/01/17 11:45:23;;;;;;;9.00;3.53;;;;;;;6.35;46.78;91111.34;5032004;28;20033;-64
2022/01/17 11:48:24;;;;;;;6.30;3.75;;;;;;;6.01;49.00;91093.69;5031893;28;20571;-64
2022/01/17 11:50:52;;;;;;;9.50;4.05;;;;;;;5.35;48.95;91096.72;5009132;28;20087;-64
2022/01/17 11:53:18;;;;;;;11.00;5.25;;;;;;;5.21;50.21;91090.47;5031493;28;20033;-65
2022/01/17 11:55:46;;;;;;;7.82;4.63;;;;;;;4.82;51.35;91083.25;5031634;28;20029;-64